JAI15B VOBL-VOTR
Flight info
| Callsign | JAI15B |
|---|---|
| Flight time | 0h 33m |
| Altitude | 25000 |
| Route | AKTIM7B AKTIM V45 TTR |
| Aircraft | A339/H-SADE1E2E3GHIJ3J5M1P2RWXY/LB2D1 |
Departure
| Time | 2026-05-05 17:32 |
|---|---|
| Airport | Kempegowda International Airport Bengaluru (VOBL) |
Arrival
| Time | 2026-05-05 18:05 |
|---|---|
| Airport | Tiruchirappalli International Airport (VOTR) |
| Time | Latitude | Longitude | Altitude | Speed | Heading |
|---|---|---|---|---|---|
| 2026-05-05 17:15 | 13.20184 | 77.70613 | 3017 ft | 0 kts | 180° |
| 2026-05-05 17:24 | 13.20195 | 77.70613 | 3017 ft | 4 kts | 176° |
| 2026-05-05 17:25 | 13.20222 | 77.70609 | 3025 ft | 4 kts | 169° |
| 2026-05-05 17:25 | 13.20224 | 77.70602 | 3022 ft | 3 kts | 208° |
| 2026-05-05 17:25 | 13.20243 | 77.70615 | 3025 ft | 4 kts | 169° |
| 2026-05-05 17:25 | 13.20257 | 77.70613 | 3024 ft | 4 kts | 111° |
| 2026-05-05 17:26 | 13.20265 | 77.70587 | 3023 ft | 4 kts | 95° |
| 2026-05-05 17:26 | 13.20266 | 77.70574 | 3024 ft | 0 kts | 91° |
| 2026-05-05 17:28 | 13.20265 | 77.70666 | 3017 ft | 49 kts | 91° |
| 2026-05-05 17:28 | 13.20266 | 77.70972 | 3017 ft | 70 kts | 89° |
| 2026-05-05 17:29 | 13.20211 | 77.71340 | 3020 ft | 64 kts | 106° |
| 2026-05-05 17:29 | 13.20245 | 77.71578 | 3017 ft | 30 kts | 57° |
| 2026-05-05 17:29 | 13.20365 | 77.71804 | 3017 ft | 42 kts | 59° |
| 2026-05-05 17:29 | 13.20435 | 77.72087 | 3017 ft | 23 kts | 90° |
| 2026-05-05 17:30 | 13.20434 | 77.72163 | 3017 ft | 10 kts | 90° |
| 2026-05-05 17:30 | 13.20434 | 77.72241 | 3017 ft | 13 kts | 89° |
| 2026-05-05 17:30 | 13.20493 | 77.72283 | 3017 ft | 12 kts | 7° |
| 2026-05-05 17:30 | 13.20594 | 77.72285 | 3017 ft | 17 kts | 1° |
| 2026-05-05 17:31 | 13.20691 | 77.72229 | 3017 ft | 16 kts | 287° |
| 2026-05-05 17:31 | 13.20693 | 77.72029 | 3017 ft | 61 kts | 269° |
| 2026-05-05 17:31 | 13.20694 | 77.71317 | 3017 ft | 136 kts | 271° |
| 2026-05-05 17:31 | 13.20715 | 77.70130 | 3115 ft | 188 kts | 270° |
| 2026-05-05 17:32 | 13.20734 | 77.68727 | 3677 ft | 202 kts | 269° |
| 2026-05-05 17:32 | 13.20582 | 77.67263 | 4239 ft | 212 kts | 251° |
| 2026-05-05 17:32 | 13.19795 | 77.66013 | 4849 ft | 213 kts | 220° |
| 2026-05-05 17:32 | 13.18475 | 77.65275 | 5290 ft | 226 kts | 193° |
| 2026-05-05 17:33 | 13.16881 | 77.65246 | 5702 ft | 236 kts | 167° |
| 2026-05-05 17:33 | 13.15195 | 77.65550 | 5972 ft | 257 kts | 174° |
| 2026-05-05 17:33 | 13.13354 | 77.65572 | 6110 ft | 271 kts | 181° |
| 2026-05-05 17:33 | 13.11440 | 77.65431 | 6195 ft | 281 kts | 184° |
| 2026-05-05 17:34 | 13.09462 | 77.65243 | 6329 ft | 286 kts | 184° |
| 2026-05-05 17:34 | 13.07474 | 77.65063 | 6740 ft | 290 kts | 184° |
| 2026-05-05 17:34 | 13.05448 | 77.64903 | 7343 ft | 293 kts | 183° |
| 2026-05-05 17:34 | 13.03417 | 77.64758 | 7944 ft | 297 kts | 183° |
| 2026-05-05 17:35 | 13.01378 | 77.64621 | 8553 ft | 300 kts | 182° |
| 2026-05-05 17:35 | 12.99270 | 77.64483 | 9178 ft | 304 kts | 182° |
| 2026-05-05 17:35 | 12.97164 | 77.64346 | 9821 ft | 307 kts | 183° |
| 2026-05-05 17:35 | 12.95001 | 77.64203 | 10322 ft | 315 kts | 183° |
| 2026-05-05 17:36 | 12.92761 | 77.64055 | 10497 ft | 334 kts | 183° |
| 2026-05-05 17:36 | 12.90370 | 77.63897 | 10684 ft | 353 kts | 183° |
| 2026-05-05 17:36 | 12.87853 | 77.63729 | 10936 ft | 370 kts | 183° |
| 2026-05-05 17:36 | 12.85264 | 77.63556 | 11561 ft | 375 kts | 183° |
| 2026-05-05 17:37 | 12.82655 | 77.63380 | 12238 ft | 378 kts | 183° |
| 2026-05-05 17:37 | 12.80931 | 77.63269 | 12672 ft | 381 kts | 182° |
| 2026-05-05 17:37 | 12.77394 | 77.63757 | 13549 ft | 384 kts | 164° |
| 2026-05-05 17:37 | 12.74799 | 77.64484 | 14187 ft | 387 kts | 163° |
| 2026-05-05 17:38 | 12.72201 | 77.65236 | 14866 ft | 388 kts | 163° |
| 2026-05-05 17:38 | 12.69600 | 77.65985 | 15495 ft | 389 kts | 163° |
| 2026-05-05 17:38 | 12.66981 | 77.66728 | 15936 ft | 392 kts | 164° |
| 2026-05-05 17:38 | 12.64340 | 77.67471 | 16398 ft | 394 kts | 164° |
| 2026-05-05 17:39 | 12.61679 | 77.68215 | 16904 ft | 394 kts | 165° |
| 2026-05-05 17:39 | 12.59071 | 77.68943 | 17805 ft | 384 kts | 165° |
| 2026-05-05 17:39 | 12.56491 | 77.69647 | 18288 ft | 386 kts | 168° |
| 2026-05-05 17:39 | 12.53822 | 77.70089 | 18637 ft | 389 kts | 173° |
| 2026-05-05 17:40 | 12.51129 | 77.70419 | 19016 ft | 392 kts | 174° |
| 2026-05-05 17:40 | 12.48411 | 77.70750 | 19405 ft | 395 kts | 174° |
| 2026-05-05 17:40 | 12.46598 | 77.70973 | 19665 ft | 397 kts | 174° |
| 2026-05-05 17:40 | 12.43848 | 77.71313 | 20047 ft | 399 kts | 174° |
| 2026-05-05 17:41 | 12.41087 | 77.71781 | 20417 ft | 403 kts | 165° |
| 2026-05-05 17:41 | 12.38367 | 77.72607 | 20820 ft | 405 kts | 164° |
| 2026-05-05 17:41 | 12.35657 | 77.73441 | 21218 ft | 408 kts | 164° |
| 2026-05-05 17:41 | 12.32926 | 77.74280 | 21608 ft | 411 kts | 164° |
| 2026-05-05 17:42 | 12.30185 | 77.75122 | 22024 ft | 413 kts | 164° |
| 2026-05-05 17:42 | 12.27457 | 77.75959 | 22415 ft | 416 kts | 164° |
| 2026-05-05 17:42 | 12.24671 | 77.76813 | 22835 ft | 418 kts | 164° |
| 2026-05-05 17:42 | 12.21871 | 77.77671 | 23230 ft | 421 kts | 164° |
| 2026-05-05 17:43 | 12.19050 | 77.78535 | 23607 ft | 424 kts | 164° |
| 2026-05-05 17:43 | 12.16221 | 77.79402 | 23954 ft | 426 kts | 164° |
| 2026-05-05 17:43 | 12.13379 | 77.80272 | 24308 ft | 428 kts | 164° |
| 2026-05-05 17:43 | 12.10503 | 77.81153 | 24656 ft | 430 kts | 164° |
| 2026-05-05 17:44 | 12.07627 | 77.82033 | 24893 ft | 433 kts | 164° |
| 2026-05-05 17:44 | 12.04743 | 77.82915 | 24960 ft | 437 kts | 164° |
| 2026-05-05 17:44 | 12.01790 | 77.83818 | 24966 ft | 447 kts | 164° |
| 2026-05-05 17:44 | 11.98811 | 77.84742 | 24964 ft | 446 kts | 162° |
| 2026-05-05 17:45 | 11.95992 | 77.86060 | 24964 ft | 447 kts | 150° |
| 2026-05-05 17:45 | 11.93498 | 77.87948 | 24961 ft | 447 kts | 139° |
| 2026-05-05 17:45 | 11.91179 | 77.90068 | 24955 ft | 448 kts | 138° |
| 2026-05-05 17:45 | 11.88860 | 77.92211 | 24954 ft | 447 kts | 138° |
| 2026-05-05 17:46 | 11.86552 | 77.94339 | 24953 ft | 447 kts | 139° |
| 2026-05-05 17:46 | 11.84236 | 77.96462 | 24955 ft | 447 kts | 139° |
| 2026-05-05 17:46 | 11.81937 | 77.98562 | 24811 ft | 447 kts | 139° |
| 2026-05-05 17:46 | 11.79623 | 78.00669 | 24589 ft | 446 kts | 139° |
| 2026-05-05 17:47 | 11.77283 | 78.02799 | 24368 ft | 443 kts | 139° |
| 2026-05-05 17:47 | 11.75015 | 78.04860 | 24152 ft | 442 kts | 139° |
| 2026-05-05 17:47 | 11.72705 | 78.06961 | 23933 ft | 441 kts | 139° |
| 2026-05-05 17:47 | 11.70422 | 78.09036 | 23718 ft | 440 kts | 139° |
| 2026-05-05 17:48 | 11.68115 | 78.11133 | 23496 ft | 439 kts | 139° |
| 2026-05-05 17:48 | 11.65864 | 78.13179 | 23239 ft | 437 kts | 139° |
| 2026-05-05 17:48 | 11.63596 | 78.15239 | 22972 ft | 435 kts | 139° |
| 2026-05-05 17:48 | 11.61341 | 78.17287 | 22730 ft | 433 kts | 139° |
| 2026-05-05 17:49 | 11.59092 | 78.19329 | 22485 ft | 431 kts | 139° |
| 2026-05-05 17:49 | 11.56854 | 78.21360 | 22225 ft | 430 kts | 139° |
| 2026-05-05 17:49 | 11.54627 | 78.23382 | 21973 ft | 429 kts | 139° |
| 2026-05-05 17:49 | 11.52399 | 78.25404 | 21726 ft | 427 kts | 139° |
| 2026-05-05 17:50 | 11.50188 | 78.27410 | 21381 ft | 425 kts | 139° |
| 2026-05-05 17:50 | 11.47975 | 78.29418 | 20736 ft | 425 kts | 139° |
| 2026-05-05 17:50 | 11.45755 | 78.31431 | 20082 ft | 423 kts | 139° |
| 2026-05-05 17:50 | 11.43561 | 78.33419 | 19423 ft | 419 kts | 139° |
| 2026-05-05 17:51 | 11.41404 | 78.35374 | 18779 ft | 413 kts | 139° |
| 2026-05-05 17:51 | 11.39273 | 78.37305 | 18163 ft | 406 kts | 139° |
| 2026-05-05 17:51 | 11.37176 | 78.39204 | 17529 ft | 399 kts | 139° |
| 2026-05-05 17:51 | 11.35114 | 78.41070 | 16881 ft | 393 kts | 139° |
| 2026-05-05 17:52 | 11.33112 | 78.42881 | 16332 ft | 386 kts | 138° |
| 2026-05-05 17:52 | 11.31090 | 78.44710 | 15652 ft | 382 kts | 138° |
| 2026-05-05 17:52 | 11.29120 | 78.46491 | 15148 ft | 373 kts | 138° |
| 2026-05-05 17:52 | 11.27187 | 78.48240 | 14529 ft | 370 kts | 138° |
| 2026-05-05 17:53 | 11.25311 | 78.49938 | 13965 ft | 365 kts | 138° |
| 2026-05-05 17:53 | 11.23404 | 78.51664 | 13404 ft | 362 kts | 138° |
| 2026-05-05 17:53 | 11.21516 | 78.53371 | 12869 ft | 362 kts | 137° |
| 2026-05-05 17:53 | 11.19641 | 78.55068 | 12320 ft | 357 kts | 137° |
| 2026-05-05 17:54 | 11.17777 | 78.56754 | 11772 ft | 354 kts | 137° |
| 2026-05-05 17:54 | 11.15959 | 78.58397 | 11229 ft | 351 kts | 137° |
| 2026-05-05 17:54 | 11.14159 | 78.60024 | 10723 ft | 348 kts | 137° |
| 2026-05-05 17:54 | 11.12333 | 78.61674 | 10282 ft | 344 kts | 137° |
| 2026-05-05 17:55 | 11.10542 | 78.63293 | 10057 ft | 345 kts | 137° |
| 2026-05-05 17:55 | 11.08749 | 78.64913 | 9824 ft | 345 kts | 137° |
| 2026-05-05 17:55 | 11.06938 | 78.66549 | 9705 ft | 343 kts | 137° |
| 2026-05-05 17:55 | 11.05180 | 78.68156 | 9561 ft | 343 kts | 135° |
| 2026-05-05 17:56 | 11.03500 | 78.69877 | 9444 ft | 342 kts | 131° |
| 2026-05-05 17:56 | 11.01993 | 78.71713 | 9289 ft | 333 kts | 127° |
| 2026-05-05 17:56 | 11.00592 | 78.73547 | 8860 ft | 324 kts | 127° |
| 2026-05-05 17:56 | 10.99216 | 78.75353 | 8147 ft | 321 kts | 127° |
| 2026-05-05 17:57 | 10.97854 | 78.77144 | 7369 ft | 318 kts | 127° |
| 2026-05-05 17:57 | 10.96527 | 78.78925 | 6614 ft | 313 kts | 124° |
| 2026-05-05 17:57 | 10.95444 | 78.80846 | 5917 ft | 310 kts | 118° |
| 2026-05-05 17:57 | 10.94381 | 78.82657 | 5282 ft | 307 kts | 122° |
| 2026-05-05 17:58 | 10.93170 | 78.84431 | 4616 ft | 304 kts | 126° |
| 2026-05-05 17:58 | 10.91847 | 78.86059 | 4246 ft | 292 kts | 131° |
| 2026-05-05 17:58 | 10.90471 | 78.87472 | 4114 ft | 269 kts | 137° |
| 2026-05-05 17:58 | 10.89060 | 78.88678 | 4101 ft | 270 kts | 142° |
| 2026-05-05 17:59 | 10.87516 | 78.89775 | 4003 ft | 269 kts | 147° |
| 2026-05-05 17:59 | 10.85930 | 78.90689 | 3911 ft | 255 kts | 153° |
| 2026-05-05 17:59 | 10.84360 | 78.91415 | 3789 ft | 240 kts | 158° |
| 2026-05-05 17:59 | 10.82834 | 78.91966 | 3671 ft | 226 kts | 162° |
| 2026-05-05 18:00 | 10.81343 | 78.92364 | 3387 ft | 219 kts | 169° |
| 2026-05-05 18:00 | 10.79860 | 78.92140 | 2959 ft | 219 kts | 207° |
| 2026-05-05 18:00 | 10.78743 | 78.91127 | 2587 ft | 220 kts | 233° |
| 2026-05-05 18:00 | 10.78138 | 78.89723 | 2359 ft | 213 kts | 255° |
| 2026-05-05 18:01 | 10.77919 | 78.88265 | 2293 ft | 201 kts | 263° |
| 2026-05-05 18:01 | 10.77815 | 78.86896 | 2307 ft | 189 kts | 264° |
| 2026-05-05 18:01 | 10.77704 | 78.85540 | 2297 ft | 191 kts | 264° |
| 2026-05-05 18:01 | 10.77603 | 78.84247 | 2293 ft | 175 kts | 264° |
| 2026-05-05 18:02 | 10.77502 | 78.82983 | 2187 ft | 172 kts | 264° |
| 2026-05-05 18:02 | 10.77411 | 78.81829 | 1971 ft | 165 kts | 263° |
| 2026-05-05 18:02 | 10.77318 | 78.80655 | 1761 ft | 168 kts | 264° |
| 2026-05-05 18:02 | 10.77228 | 78.79492 | 1534 ft | 155 kts | 264° |
| 2026-05-05 18:03 | 10.77144 | 78.78435 | 1339 ft | 149 kts | 264° |
| 2026-05-05 18:03 | 10.77062 | 78.77392 | 1145 ft | 145 kts | 264° |
| 2026-05-05 18:03 | 10.76980 | 78.76356 | 977 ft | 153 kts | 264° |
| 2026-05-05 18:03 | 10.76891 | 78.75303 | 782 ft | 148 kts | 264° |
| 2026-05-05 18:04 | 10.76802 | 78.74232 | 630 ft | 150 kts | 264° |
| 2026-05-05 18:04 | 10.76721 | 78.73174 | 393 ft | 152 kts | 266° |
| 2026-05-05 18:04 | 10.76648 | 78.72125 | 294 ft | 141 kts | 267° |
| 2026-05-05 18:04 | 10.76595 | 78.71404 | 302 ft | 59 kts | 265° |
| 2026-05-05 18:05 | 10.76568 | 78.71071 | 302 ft | 41 kts | 265° |
| 2026-05-05 18:05 | 10.76535 | 78.70806 | 307 ft | 17 kts | 242° |
| 2026-05-05 18:05 | 10.76491 | 78.70800 | 307 ft | 11 kts | 173° |
| 2026-05-05 18:05 | 10.76423 | 78.70844 | 306 ft | 12 kts | 143° |
| 2026-05-05 18:06 | 10.76335 | 78.70887 | 305 ft | 15 kts | 156° |
| 2026-05-05 18:06 | 10.76303 | 78.70904 | 307 ft | 16 kts | 150° |
| 2026-05-05 18:06 | 10.76134 | 78.71011 | 304 ft | 18 kts | 149° |
| 2026-05-05 18:06 | 10.76090 | 78.71034 | 306 ft | 2 kts | 160° |
| 2026-05-05 18:07 | 10.76070 | 78.71017 | 306 ft | 6 kts | 224° |
| 2026-05-05 18:07 | 10.76054 | 78.70985 | 306 ft | 0 kts | 236° |
| 2026-05-05 18:07 | 10.76053 | 78.70984 | 306 ft | 1 kts | 236° |
| 2026-05-05 18:07 | 10.76049 | 78.70978 | 304 ft | 0 kts | 237° |
| 2026-05-05 18:08 | 10.76047 | 78.70974 | 304 ft | 0 kts | 237° |
| 2026-05-05 18:08 | 10.76046 | 78.70973 | 304 ft | 0 kts | 237° |
| 2026-05-05 18:12 | 10.76832 | 78.74583 | 683 ft | 153 kts | 264° |
| 2026-05-05 18:12 | 10.76742 | 78.73482 | 451 ft | 151 kts | 265° |
| 2026-05-05 18:12 | 10.76665 | 78.72386 | 295 ft | 146 kts | 266° |
| 2026-05-05 18:12 | 10.76603 | 78.71509 | 297 ft | 78 kts | 265° |